Etna, New York
Current Conditions -  °F | °C
As of 8:56 AM on Sunday 25 Jan 2015 (Local Time) from KITH Reporting Station
Light Snow Light Snow  
Wind Chill:   Ceiling: 2200
Heat Index: 21°   Visibility: 10mi
Dew Point: 13°   Wind: 17mph
Humidity: 71%   Direction: 330°NNW
Pressure: 29.77"   Gusts: NA
Location:  42.48°N, 76.38°W
Report Text: KITH 251356Z 33015KT 10SM -SN BKN022 M06/M11 A2977 RMK AO2 T10611105 SNE1258B49 P0000 SLP095
Loading
Personal Weather Stations






























Interactive Weather Map New forecast layout! Learn more

10-Day Weather Forecast

Advertisements
Track Severe Weather on mobile